createdAt,value
2019-02-05T00:00:16.931Z,27.60
2019-02-05T00:02:45.152Z,34.03
2019-02-05T00:05:13.669Z,38.23
2019-02-05T00:07:41.957Z,35.63
2019-02-05T00:10:10.271Z,30.43
2019-02-05T00:12:38.488Z,33.13
2019-02-05T00:15:07.000Z,28.53
2019-02-05T00:17:35.219Z,20.47
2019-02-05T00:20:04.835Z,30.13
2019-02-05T00:22:33.052Z,26.27
2019-02-05T00:25:01.304Z,27.77
2019-02-05T00:27:29.518Z,33.13
2019-02-05T00:29:57.774Z,36.40
2019-02-05T00:32:26.063Z,41.97
2019-02-05T00:34:54.378Z,28.40
2019-02-05T00:37:22.827Z,31.83
2019-02-05T00:39:51.111Z,33.83
2019-02-05T00:42:19.366Z,37.97
2019-02-05T00:44:47.575Z,37.63
2019-02-05T00:47:15.814Z,12.93
2019-02-05T00:49:44.040Z,31.37
2019-02-05T00:52:12.792Z,33.43
2019-02-05T00:54:41.011Z,24.33
2019-02-05T00:57:09.415Z,35.60
2019-02-05T00:59:37.627Z,19.83
2019-02-05T01:02:05.944Z,23.20
2019-02-05T01:04:34.230Z,20.43
2019-02-05T01:07:02.544Z,9.50
2019-02-05T01:09:30.955Z,32.60
2019-02-05T01:11:59.271Z,15.83
2019-02-05T01:14:27.494Z,17.77
2019-02-05T01:16:55.743Z,22.37
2019-02-05T01:19:24.031Z,34.03
2019-02-05T01:21:52.276Z,17.40
2019-02-05T01:24:20.799Z,13.13
2019-02-05T01:26:49.045Z,30.13
2019-02-05T01:29:17.259Z,26.00
2019-02-05T01:31:45.507Z,37.37
2019-02-05T01:34:13.723Z,40.73
2019-02-05T01:36:41.971Z,34.77
2019-02-05T01:39:10.191Z,34.80
2019-02-05T01:41:38.485Z,26.90
2019-02-05T01:44:06.736Z,29.87
2019-02-05T01:46:34.951Z,29.17
2019-02-05T01:49:03.269Z,42.70
2019-02-05T01:51:31.489Z,28.53
2019-02-05T01:53:59.740Z,37.27
2019-02-05T01:56:28.255Z,45.30
2019-02-05T01:58:56.496Z,44.63
2019-02-05T02:01:24.708Z,35.80
2019-02-05T02:03:52.959Z,33.93
2019-02-05T02:06:21.181Z,49.90
2019-02-05T02:08:49.442Z,47.53
2019-02-05T02:11:17.734Z,43.37
2019-02-05T02:13:46.188Z,49.10
2019-02-05T02:16:14.415Z,43.80
2019-02-05T02:18:42.670Z,46.30
2019-02-05T02:21:10.965Z,41.07
2019-02-05T02:23:39.289Z,41.50
2019-02-05T02:26:07.514Z,45.17
2019-02-05T02:28:35.765Z,37.70
2019-02-05T02:31:04.069Z,49.80
2019-02-05T02:33:32.317Z,45.60
2019-02-05T02:36:00.541Z,49.27
2019-02-05T02:38:28.802Z,47.40
2019-02-05T02:40:57.035Z,43.23
2019-02-05T02:43:25.285Z,48.70
2019-02-05T02:45:53.919Z,43.23
2019-02-05T02:48:22.151Z,46.30
2019-02-05T02:50:50.404Z,42.60
2019-02-05T02:53:18.708Z,47.13
2019-02-05T02:55:46.979Z,55.07
2019-02-05T02:58:15.201Z,37.17
2019-02-05T03:00:43.462Z,50.03
2019-02-05T03:03:11.896Z,51.33
2019-02-05T03:05:40.145Z,42.80
2019-02-05T03:08:08.375Z,40.47
2019-02-05T03:10:36.621Z,45.90
2019-02-05T03:13:04.921Z,41.27
2019-02-05T03:15:33.175Z,54.90
2019-02-05T03:18:01.400Z,48.73
2019-02-05T03:20:30.154Z,47.30
2019-02-05T03:22:58.455Z,54.30
2019-02-05T03:25:26.885Z,47.87
2019-02-05T03:27:55.267Z,43.00
2019-02-05T03:30:24.636Z,54.97
2019-02-05T03:32:53.904Z,49.73
2019-02-05T03:35:22.321Z,42.13
2019-02-05T03:37:50.824Z,57.40
2019-02-05T03:40:26.832Z,41.70
2019-02-05T03:42:55.058Z,54.03
2019-02-05T03:45:24.181Z,47.53
2019-02-05T03:47:53.983Z,55.27
2019-02-05T03:50:22.302Z,39.77
2019-02-05T03:53:01.074Z,50.10
2019-02-05T03:55:33.573Z,38.80
2019-02-05T03:58:18.606Z,40.13
2019-02-05T04:00:57.317Z,53.90
2019-02-05T04:03:33.282Z,44.00
2019-02-05T04:06:15.325Z,43.90
2019-02-05T04:08:45.041Z,44.50
2019-02-05T04:11:17.525Z,40.13
2019-02-05T04:14:04.233Z,53.80
2019-02-05T04:16:34.025Z,34.97
2019-02-05T04:19:20.171Z,49.60
2019-02-05T04:21:50.164Z,50.20
2019-02-05T04:24:23.101Z,55.30
2019-02-05T04:27:07.845Z,43.50
2019-02-05T04:29:40.174Z,46.30
2019-02-05T04:32:26.794Z,40.40
2019-02-05T04:35:05.458Z,53.23
2019-02-05T04:37:41.456Z,55.30
2019-02-05T04:40:17.542Z,47.63
2019-02-05T04:43:02.382Z,42.03
2019-02-05T04:45:34.257Z,45.37
2019-02-05T04:48:12.361Z,45.23
2019-02-05T04:50:42.120Z,42.47
2019-02-05T04:53:14.718Z,41.10
2019-02-05T04:55:50.444Z,48.33
2019-02-05T04:58:35.268Z,51.40
2019-02-05T05:01:21.561Z,50.00
2019-02-05T05:03:54.089Z,48.47
2019-02-05T05:06:40.463Z,55.73
2019-02-05T05:09:10.247Z,48.40
2019-02-05T05:11:40.986Z,45.10
2019-02-05T05:14:08.694Z,47.93
2019-02-05T05:16:36.928Z,65.33
2019-02-05T05:19:05.359Z,49.13
2019-02-05T05:21:33.573Z,52.70
2019-02-05T05:24:01.897Z,48.80
2019-02-05T05:26:30.193Z,52.37
2019-02-05T05:28:58.519Z,46.27
2019-02-05T05:31:26.728Z,50.60
2019-02-05T05:33:54.990Z,63.73
2019-02-05T05:36:23.211Z,57.73
2019-02-05T05:38:51.457Z,67.63
2019-02-05T05:41:19.882Z,60.47
2019-02-05T05:43:48.139Z,46.07
2019-02-05T05:46:16.372Z,51.50
2019-02-05T05:48:44.620Z,66.43
2019-02-05T05:51:12.916Z,58.50
2019-02-05T05:53:41.162Z,59.07
2019-02-05T05:56:09.464Z,51.17
2019-02-05T05:58:38.025Z,49.10
2019-02-05T06:01:06.316Z,65.37
2019-02-05T06:03:34.565Z,49.47
2019-02-05T06:06:02.956Z,55.60
2019-02-05T06:08:31.209Z,52.20
2019-02-05T06:10:59.537Z,70.33
2019-02-05T06:13:27.816Z,59.43
2019-02-05T06:15:56.321Z,56.40
2019-02-05T06:18:24.545Z,52.87
2019-02-05T06:20:52.798Z,57.33
2019-02-05T06:23:21.102Z,53.60
2019-02-05T06:25:49.350Z,55.13
2019-02-05T06:28:17.640Z,57.93
2019-02-05T06:30:45.904Z,56.40
2019-02-05T06:33:14.425Z,50.03
2019-02-05T06:35:42.676Z,46.13
2019-02-05T06:38:10.911Z,61.50
2019-02-05T06:40:39.229Z,47.97
2019-02-05T06:43:07.529Z,52.43
2019-02-05T06:45:35.784Z,61.13
2019-02-05T06:48:04.374Z,46.90
2019-02-05T06:50:33.035Z,44.20
2019-02-05T06:53:01.330Z,66.10
2019-02-05T06:55:29.576Z,63.00
2019-02-05T06:57:57.801Z,68.77
2019-02-05T07:00:26.124Z,76.97
2019-02-05T07:02:54.421Z,67.47
2019-02-05T07:05:22.741Z,58.67
2019-02-05T07:07:51.260Z,53.30
2019-02-05T07:10:23.326Z,55.20
2019-02-05T07:12:51.616Z,60.27
2019-02-05T07:15:19.962Z,55.50
2019-02-05T07:17:50.127Z,62.07
2019-02-05T07:20:18.235Z,83.30
2019-02-05T07:22:46.557Z,66.70
2019-02-05T07:25:19.088Z,65.57
2019-02-05T07:27:47.408Z,62.67
2019-02-05T07:30:17.168Z,64.10
2019-02-05T07:32:45.488Z,62.07
2019-02-05T07:35:13.988Z,86.70
2019-02-05T07:37:42.242Z,66.40
2019-02-05T07:40:11.939Z,71.30
2019-02-05T07:42:40.565Z,74.83
2019-02-05T07:45:10.556Z,63.90
2019-02-05T07:47:38.856Z,73.23
2019-02-05T07:50:08.650Z,67.70
2019-02-05T07:52:36.905Z,47.83
2019-02-05T07:55:06.901Z,60.60
2019-02-05T07:57:35.160Z,66.40
2019-02-05T08:00:05.225Z,59.17
2019-02-05T08:02:33.478Z,56.50
2019-02-05T08:05:01.705Z,72.50
2019-02-05T08:07:30.025Z,64.40
2019-02-05T08:09:58.249Z,63.27
2019-02-05T08:12:26.577Z,72.57
2019-02-05T08:14:54.865Z,51.60
2019-02-05T08:17:23.124Z,51.63
2019-02-05T08:19:51.657Z,52.47
2019-02-05T08:22:20.110Z,47.70
2019-02-05T08:24:48.337Z,61.27
2019-02-05T08:27:16.593Z,58.83
2019-02-05T08:29:44.816Z,62.77
2019-02-05T08:32:13.075Z,48.80
2019-02-05T08:34:41.302Z,43.97
2019-02-05T08:37:09.555Z,33.13
2019-02-05T08:39:38.010Z,44.63
2019-02-05T08:42:06.233Z,30.43
2019-02-05T08:44:34.561Z,41.43
2019-02-05T08:47:02.793Z,52.33
2019-02-05T08:49:31.032Z,50.87
2019-02-05T08:51:59.337Z,56.90
2019-02-05T08:54:27.584Z,50.77
2019-02-05T08:56:56.180Z,39.57
2019-02-05T08:59:24.428Z,53.20
2019-02-05T09:01:52.656Z,47.53
2019-02-05T09:04:20.973Z,72.50
2019-02-05T09:06:49.197Z,47.50
2019-02-05T09:09:17.449Z,55.77
2019-02-05T09:11:45.677Z,48.93
2019-02-05T09:14:13.935Z,52.80
2019-02-05T09:16:42.452Z,50.77
2019-02-05T09:19:10.714Z,47.57
2019-02-05T09:21:38.937Z,48.53
2019-02-05T09:24:07.269Z,54.70
2019-02-05T09:26:35.567Z,51.17
2019-02-05T09:29:03.953Z,43.43
2019-02-05T09:31:32.278Z,58.47
2019-02-05T09:34:00.968Z,38.10
2019-02-05T09:36:29.225Z,41.97
2019-02-05T09:38:57.453Z,50.07
2019-02-05T09:41:25.769Z,41.93
2019-02-05T09:43:53.996Z,45.20
2019-02-05T09:46:22.252Z,47.10
2019-02-05T09:48:50.481Z,46.57
2019-02-05T09:51:18.728Z,42.77
2019-02-05T09:53:46.979Z,48.53
2019-02-05T09:56:15.201Z,54.20
2019-02-05T09:58:43.426Z,47.83
2019-02-05T10:01:11.795Z,50.27
2019-02-05T10:03:40.005Z,49.70
2019-02-05T10:06:08.256Z,58.13
2019-02-05T10:08:36.485Z,38.77
2019-02-05T10:11:05.135Z,34.00
2019-02-05T10:13:33.354Z,46.57
2019-02-05T10:16:01.609Z,68.83
2019-02-05T10:18:29.837Z,51.63
2019-02-05T10:20:58.158Z,36.37
2019-02-05T10:23:26.558Z,44.60
2019-02-05T10:25:54.805Z,46.47
2019-02-05T10:28:23.333Z,38.67
2019-02-05T10:30:51.588Z,43.07
2019-02-05T10:33:19.805Z,59.97
2019-02-05T10:35:48.132Z,43.50
2019-02-05T10:38:16.424Z,47.33
2019-02-05T10:40:44.677Z,51.23
2019-02-05T10:43:12.972Z,54.80
2019-02-05T10:45:41.292Z,51.37
2019-02-05T10:48:09.785Z,37.73
2019-02-05T10:50:38.273Z,41.50
2019-02-05T10:53:06.593Z,38.40
2019-02-05T10:55:34.822Z,33.43
2019-02-05T10:58:03.146Z,34.67
2019-02-05T11:00:32.000Z,36.13
2019-02-05T11:03:01.425Z,42.07
2019-02-05T11:05:30.117Z,43.53
2019-02-05T11:07:58.440Z,43.80
2019-02-05T11:10:26.737Z,31.93
2019-02-05T11:12:54.993Z,37.97
2019-02-05T11:15:24.756Z,44.37
2019-02-05T11:17:53.008Z,33.47
2019-02-05T11:20:22.313Z,44.87
2019-02-05T11:22:50.867Z,39.63
2019-02-05T11:25:19.267Z,55.23
2019-02-05T11:27:47.512Z,44.47
2019-02-05T11:30:20.367Z,18.00
2019-02-05T11:32:47.426Z,53.83
2019-02-05T11:35:15.812Z,47.70
2019-02-05T11:37:44.141Z,50.47
2019-02-05T11:40:14.105Z,37.40
2019-02-05T11:42:42.424Z,39.43
2019-02-05T11:45:12.520Z,31.67
2019-02-05T11:47:40.776Z,36.27
2019-02-05T11:50:10.674Z,57.30
2019-02-05T11:52:38.988Z,15.40
2019-02-05T11:55:08.855Z,47.30
2019-02-05T11:57:37.096Z,61.93
2019-02-05T12:00:07.029Z,31.10
2019-02-05T12:02:35.361Z,38.73
2019-02-05T12:05:04.461Z,44.80
2019-02-05T12:07:32.713Z,45.23
2019-02-05T12:10:01.006Z,39.03
2019-02-05T12:12:29.257Z,45.43
2019-02-05T12:14:57.493Z,51.40
2019-02-05T12:17:25.753Z,44.87
2019-02-05T12:19:55.644Z,28.20
2019-02-05T12:22:24.173Z,45.53
2019-02-05T12:24:52.434Z,46.20
2019-02-05T12:27:20.665Z,50.63
2019-02-05T12:29:48.917Z,42.10
2019-02-05T12:32:17.536Z,48.50
2019-02-05T12:34:45.798Z,48.70
2019-02-05T12:37:14.083Z,46.90
2019-02-05T12:39:42.402Z,59.20
2019-02-05T12:42:10.633Z,54.87
2019-02-05T12:44:38.955Z,73.57
2019-02-05T12:47:07.261Z,32.20
2019-02-05T12:49:35.982Z,44.03
2019-02-05T12:52:04.473Z,50.13
2019-02-05T12:54:32.724Z,45.33
2019-02-05T12:57:00.956Z,54.53
2019-02-05T12:59:29.208Z,48.73
2019-02-05T13:01:57.436Z,42.27
2019-02-05T13:04:25.697Z,43.27
2019-02-05T13:06:54.221Z,42.47
2019-02-05T13:09:22.609Z,46.57
2019-02-05T13:11:50.828Z,39.80
2019-02-05T13:14:19.184Z,53.47
2019-02-05T13:16:47.521Z,49.40
2019-02-05T13:19:15.869Z,43.63
2019-02-05T13:21:44.091Z,44.10
2019-02-05T13:24:12.347Z,36.07
2019-02-05T13:26:40.570Z,45.13
2019-02-05T13:29:08.829Z,44.10
2019-02-05T13:31:37.122Z,50.67
2019-02-05T13:34:05.744Z,42.70
2019-02-05T13:36:33.973Z,42.03
2019-02-05T13:39:02.760Z,31.03
2019-02-05T13:41:30.990Z,48.27
2019-02-05T13:43:59.210Z,42.77
2019-02-05T13:46:27.469Z,39.73
2019-02-05T13:48:55.685Z,40.37
2019-02-05T13:51:24.004Z,44.93
2019-02-05T13:53:52.696Z,45.23
2019-02-05T13:56:20.949Z,50.57
2019-02-05T13:58:49.174Z,60.10
2019-02-05T14:01:20.139Z,50.20
2019-02-05T14:03:47.304Z,38.70
2019-02-05T14:06:15.630Z,45.40
2019-02-05T14:08:43.922Z,52.03
2019-02-05T14:11:12.549Z,59.27
2019-02-05T14:13:40.841Z,43.00
2019-02-05T14:16:09.265Z,29.93
2019-02-05T14:18:37.495Z,50.30
2019-02-05T14:21:05.750Z,46.87
2019-02-05T14:23:33.973Z,38.27
2019-02-05T14:26:02.296Z,29.73
2019-02-05T14:28:30.720Z,42.40
2019-02-05T14:30:59.036Z,37.73
2019-02-05T14:33:27.257Z,7.53
2019-02-05T14:35:55.632Z,42.37
2019-02-05T14:38:24.010Z,43.77
2019-02-05T14:40:52.269Z,44.33
2019-02-05T14:43:20.563Z,29.43
2019-02-05T14:45:48.813Z,22.30
2019-02-05T14:48:17.049Z,39.50
2019-02-05T14:50:46.464Z,40.43
2019-02-05T14:53:14.968Z,47.63
2019-02-05T14:55:43.220Z,45.70
2019-02-05T14:58:12.112Z,47.13
2019-02-05T15:00:40.637Z,38.70
2019-02-05T15:03:09.934Z,47.20
2019-02-05T15:05:38.437Z,42.77
2019-02-05T15:08:07.048Z,60.80
2019-02-05T15:10:35.285Z,56.60
2019-02-05T15:13:03.805Z,40.57
2019-02-05T15:15:32.328Z,46.57
2019-02-05T15:18:00.585Z,59.67
2019-02-05T15:20:33.133Z,43.67
2019-02-05T15:23:01.772Z,42.47
2019-02-05T15:25:29.993Z,38.70
2019-02-05T15:27:58.257Z,48.33
2019-02-05T15:30:28.220Z,40.17
2019-02-05T15:33:13.193Z,54.63
2019-02-05T15:35:43.128Z,45.50
2019-02-05T15:38:11.386Z,51.07
2019-02-05T15:40:39.680Z,55.13
2019-02-05T15:43:11.515Z,50.23
2019-02-05T15:45:39.736Z,56.63
2019-02-05T15:48:08.065Z,50.20
2019-02-05T15:50:36.290Z,49.63
2019-02-05T15:53:04.715Z,49.87
2019-02-05T15:55:32.936Z,49.83
2019-02-05T15:58:01.398Z,62.33
2019-02-05T16:00:29.689Z,44.00
2019-02-05T16:02:58.009Z,46.97
2019-02-05T16:05:26.237Z,35.67
2019-02-05T16:07:54.563Z,52.07
2019-02-05T16:10:24.321Z,58.60
2019-02-05T16:12:52.581Z,49.03
2019-02-05T16:15:20.889Z,46.40
2019-02-05T16:17:49.304Z,26.77
2019-02-05T16:20:18.405Z,33.67
2019-02-05T16:22:46.927Z,59.23
2019-02-05T16:25:15.220Z,51.60
2019-02-05T16:27:43.645Z,46.77
2019-02-05T16:30:19.540Z,38.87
2019-02-05T16:32:47.866Z,48.00
2019-02-05T16:35:16.088Z,56.43
2019-02-05T16:37:44.409Z,49.70
2019-02-05T16:40:14.169Z,52.13
2019-02-05T16:42:42.494Z,43.27
2019-02-05T16:45:12.629Z,44.63
2019-02-05T16:47:40.850Z,51.47
2019-02-05T16:50:10.709Z,50.67
2019-02-05T16:52:39.065Z,42.37
2019-02-05T16:55:07.593Z,40.63
2019-02-05T16:57:35.817Z,44.70
2019-02-05T17:00:11.610Z,34.47
2019-02-05T17:02:39.836Z,41.33
2019-02-05T17:05:08.352Z,42.60
2019-02-05T17:07:36.581Z,49.97
2019-02-05T17:10:06.464Z,47.57
2019-02-05T17:12:34.765Z,50.63
2019-02-05T17:15:04.645Z,44.73
2019-02-05T17:17:32.869Z,53.40
2019-02-05T17:20:01.198Z,61.17
2019-02-05T17:22:29.420Z,50.80
2019-02-05T17:24:57.740Z,47.90
2019-02-05T17:27:25.969Z,39.47
2019-02-05T17:29:54.224Z,46.97
2019-02-05T17:32:22.449Z,50.70
2019-02-05T17:34:50.704Z,46.47
2019-02-05T17:37:19.001Z,48.33
2019-02-05T17:39:47.248Z,44.53
2019-02-05T17:42:15.474Z,48.43
2019-02-05T17:44:43.725Z,60.40
2019-02-05T17:47:12.254Z,44.03
2019-02-05T17:49:40.572Z,49.27
2019-02-05T17:52:08.969Z,54.30
2019-02-05T17:54:37.292Z,65.17
2019-02-05T17:57:05.700Z,48.77
2019-02-05T17:59:34.417Z,44.47
2019-02-05T18:02:02.718Z,43.47
2019-02-05T18:04:31.240Z,41.57
2019-02-05T18:06:59.841Z,58.40
2019-02-05T18:09:28.096Z,47.10
2019-02-05T18:11:56.592Z,37.43
2019-02-05T18:14:25.057Z,33.43
2019-02-05T18:16:53.555Z,41.90
2019-02-05T18:19:22.349Z,45.47
2019-02-05T18:21:50.953Z,43.20
2019-02-05T18:24:19.508Z,55.13
2019-02-05T18:26:48.223Z,49.13
2019-02-05T18:29:16.772Z,44.97
2019-02-05T18:31:45.292Z,41.97
2019-02-05T18:34:14.841Z,47.33
2019-02-05T18:36:43.858Z,52.97
2019-02-05T18:39:12.448Z,47.23
2019-02-05T18:41:41.048Z,46.20
2019-02-05T18:44:09.609Z,41.73
2019-02-05T18:46:38.221Z,41.63
2019-02-05T18:49:08.572Z,45.63
2019-02-05T18:51:37.020Z,43.97
2019-02-05T18:54:05.881Z,47.03
2019-02-05T18:56:34.602Z,44.50
2019-02-05T18:59:03.461Z,52.73
2019-02-05T19:01:32.173Z,58.17
2019-02-05T19:04:00.724Z,62.93
2019-02-05T19:06:29.451Z,47.73
2019-02-05T19:08:57.997Z,45.90
2019-02-05T19:11:26.611Z,52.13
2019-02-05T19:13:55.465Z,53.20
2019-02-05T19:16:24.086Z,48.63
2019-02-05T19:18:52.741Z,49.80
2019-02-05T19:21:21.395Z,38.87
2019-02-05T19:23:51.689Z,46.27
2019-02-05T19:26:20.570Z,47.47
2019-02-05T19:28:49.229Z,44.20
2019-02-05T19:31:19.286Z,39.37
2019-02-05T19:33:48.357Z,50.13
2019-02-05T19:36:17.234Z,46.53
2019-02-05T19:38:46.346Z,46.63
2019-02-05T19:41:15.113Z,48.20
2019-02-05T19:43:43.920Z,47.77
2019-02-05T19:46:20.005Z,48.23
2019-02-05T19:48:50.117Z,44.90
2019-02-05T19:51:19.272Z,70.47
2019-02-05T19:53:48.185Z,55.70
2019-02-05T19:56:17.053Z,54.67
2019-02-05T19:58:45.669Z,59.17
2019-02-05T20:01:14.329Z,58.10
2019-02-05T20:03:43.036Z,53.67
2019-02-05T20:06:11.992Z,48.53
2019-02-05T20:08:40.912Z,59.13
2019-02-05T20:11:09.472Z,52.60
2019-02-05T20:13:40.365Z,49.93
2019-02-05T20:16:09.192Z,53.93
2019-02-05T20:18:38.119Z,53.77
2019-02-05T20:21:06.973Z,54.53
2019-02-05T20:23:35.597Z,53.47
2019-02-05T20:26:04.761Z,50.63
2019-02-05T20:28:33.486Z,50.17
2019-02-05T20:31:02.332Z,56.13
2019-02-05T20:33:30.957Z,50.50
2019-02-05T20:35:59.821Z,40.47
2019-02-05T20:38:28.739Z,42.63
2019-02-05T20:40:57.594Z,49.00
2019-02-05T20:43:26.509Z,49.37
2019-02-05T20:45:55.676Z,52.90
2019-02-05T20:48:24.433Z,59.23
2019-02-05T20:50:53.273Z,50.47
2019-02-05T20:53:21.838Z,53.33
2019-02-05T20:55:50.553Z,52.57
2019-02-05T20:58:19.312Z,50.50
2019-02-05T21:00:48.033Z,57.80
2019-02-05T21:03:16.589Z,55.57
2019-02-05T21:05:45.202Z,56.80
2019-02-05T21:08:13.857Z,61.57
2019-02-05T21:10:42.460Z,54.57
2019-02-05T21:13:11.129Z,62.83
2019-02-05T21:15:39.512Z,95.93
2019-02-05T21:18:08.082Z,59.07
2019-02-05T21:20:36.695Z,66.37
2019-02-05T21:23:05.354Z,58.13
2019-02-05T21:25:33.870Z,61.83
2019-02-05T21:28:02.316Z,60.13
2019-02-05T21:30:30.920Z,55.43
2019-02-05T21:32:59.485Z,53.17
2019-02-05T21:35:28.100Z,57.67
2019-02-05T21:37:56.784Z,61.23
2019-02-05T21:40:25.717Z,63.73
2019-02-05T21:42:54.015Z,54.83
2019-02-05T21:45:23.806Z,62.53
2019-02-05T21:47:52.072Z,60.40
2019-02-05T21:50:23.621Z,49.00
2019-02-05T21:52:52.202Z,57.50
2019-02-05T21:55:24.151Z,68.10
2019-02-05T21:57:52.445Z,70.60
2019-02-05T22:00:31.191Z,66.93
2019-02-05T22:02:59.497Z,51.37
2019-02-05T22:05:28.601Z,69.33
2019-02-05T22:07:57.046Z,67.77
2019-02-05T22:10:25.413Z,62.13
2019-02-05T22:12:53.657Z,74.27
2019-02-05T22:15:22.348Z,59.13
2019-02-05T22:17:50.678Z,63.17
2019-02-05T22:20:20.441Z,49.67
2019-02-05T22:22:48.856Z,63.73
2019-02-05T22:25:21.201Z,55.63
2019-02-05T22:27:49.536Z,71.53
2019-02-05T22:30:21.633Z,69.77
2019-02-05T22:32:49.881Z,56.37
2019-02-05T22:35:18.880Z,62.30
2019-02-05T22:37:47.606Z,72.80
2019-02-05T22:40:16.803Z,73.10
2019-02-05T22:42:45.126Z,80.07
2019-02-05T22:45:14.412Z,63.40
2019-02-05T22:47:42.664Z,65.80
2019-02-05T22:50:12.769Z,63.10
2019-02-05T22:52:41.033Z,63.50
2019-02-05T22:55:09.721Z,58.50
2019-02-05T22:57:37.984Z,57.77
2019-02-05T23:00:10.877Z,38.70
2019-02-05T23:02:39.292Z,53.57
2019-02-05T23:05:21.224Z,63.17
2019-02-05T23:07:49.685Z,58.60
2019-02-05T23:10:19.445Z,61.73
2019-02-05T23:12:48.046Z,66.90
2019-02-05T23:15:17.460Z,61.13
2019-02-05T23:17:45.789Z,56.17
2019-02-05T23:20:15.485Z,75.00
2019-02-05T23:22:43.805Z,58.90
2019-02-05T23:25:12.198Z,57.47
2019-02-05T23:27:40.725Z,53.83
2019-02-05T23:30:16.396Z,65.83
2019-02-05T23:32:44.648Z,57.20
2019-02-05T23:35:12.949Z,58.50
2019-02-05T23:37:41.241Z,68.43
2019-02-05T23:40:10.365Z,58.67
2019-02-05T23:42:38.717Z,65.60
2019-02-05T23:45:08.613Z,58.83
2019-02-05T23:47:36.841Z,52.90
2019-02-05T23:50:10.792Z,50.70
2019-02-05T23:52:39.430Z,65.83
2019-02-05T23:55:09.244Z,62.77
2019-02-05T23:57:37.498Z,53.00
